Terminal Aerodrome Forecast
Issued by NWS Mt. Holly, NJ

Home | Current Version | Previous Version | Text Only | Print | Product List | Glossary On
Versions: 1 2 3 4 5 6 7 8 9 10 11 12 13 14 15 16
000
FTAK31 PANC 211933 AAA
TAFABE
TAF AMD
PABE 211933Z 2120/2218 35013KT P6SM OVC007
     FM212100 35013KT P6SM BKN010
     FM212300 34014G21KT P6SM FEW010 BKN035
     FM220500 34011KT P6SM BKN100=

USA.gov is the U.S. government's official web portal to all federal, state and local government web resources and services.